Terminal Aerodrome Forecast
Issued by NWS Charleston, WV

Current Version | Previous Version | Graphics & Text | Print | Product List | Glossary On
Versions: 1 2 3 4 5 6 7 8 9 10 11 12 13 14 15 16 17 18 19 20 21 22 23 24 25 26 27 28 29 30
288
FTUS41 KRLX 221512 AAA
TAFEKN
TAF AMD
KEKN 221512Z 2215/2312 26004KT P6SM VCTS SCT035CB BKN060
      TEMPO 2215/2219 3SM SHRA OVC035
     FM222000 25005KT P6SM SCT040
     FM230300 00000KT P6SM BKN020
     FM230800 00000KT P6SM BKN015=

USA.gov is the U.S. government's official web portal to all federal, state and local government web resources and services.